ABM weather

Northern Peninsula Airport
Bamaga, Queensland, Australia

Public forecast

Using degrees Celsius for public forecast. Weather courtesy of forecast.io.

Closest aviation weather report (METAR) to Northern Peninsula Airport

Closest report is Horn Island Airport, 24.0 nm (44.5 km) NNW. Retrieved 2020/01/29 06:30 UTC (1 hour ago):

YHID 290630Z AUTO 31005KT 9999 // NCD 31/25 Q1006

Closest aviation forecast (TAF) to Northern Peninsula Airport

Closest forecast is Horn Island Airport, 24.0 nm (44.5 km) NNW. Retrieved 2020/01/29 06:00 UTC (2 hours ago):

TAF YHID 290511Z 2906/3006 32014KT 9999 -SHRA SCT020 FM290800 29008KT 9999 -SHRA SCT020 INTER 2906/3006 3000 SHRA BKN014 PROB30 TEMPO 2906/3006 VRB20G35KT 0500 TSRA BKN005 SCT020CB